createdAt,value
2018-09-08T00:00:51.193Z,0
2018-09-08T00:02:01.154Z,0
2018-09-08T00:03:11.116Z,0
2018-09-08T00:04:20.822Z,0
2018-09-08T00:05:30.792Z,0
2018-09-08T00:06:40.758Z,0
2018-09-08T00:07:50.187Z,0
2018-09-08T00:08:59.903Z,0
2018-09-08T00:10:09.604Z,0
2018-09-08T00:11:19.302Z,0
2018-09-08T00:12:29.259Z,0
2018-09-08T00:13:39.209Z,0
2018-09-08T00:14:48.922Z,0
2018-09-08T00:15:58.892Z,0
2018-09-08T00:17:08.337Z,0
2018-09-08T00:18:18.050Z,0
2018-09-08T00:19:27.744Z,0
2018-09-08T00:20:37.705Z,0
2018-09-08T00:21:47.656Z,0
2018-09-08T00:22:57.623Z,0
2018-09-08T00:24:07.580Z,0
2018-09-08T00:25:17.282Z,0
2018-09-08T00:26:27.244Z,0
2018-09-08T00:27:37.208Z,0
2018-09-08T00:28:47.160Z,0
2018-09-08T00:29:56.858Z,0
2018-09-08T00:31:06.367Z,0
2018-09-08T00:32:16.074Z,0
2018-09-08T00:33:26.023Z,0
2018-09-08T00:34:35.981Z,0
2018-09-08T00:35:45.692Z,0
2018-09-08T00:36:55.645Z,0
2018-09-08T00:38:05.604Z,0
2018-09-08T00:39:15.569Z,0
2018-09-08T00:40:25.015Z,0
2018-09-08T00:41:34.983Z,0
2018-09-08T00:42:44.945Z,0
2018-09-08T00:43:54.925Z,0
2018-09-08T00:45:04.629Z,0
2018-09-08T00:46:14.590Z,0
2018-09-08T00:47:24.309Z,0
2018-09-08T00:48:34.013Z,0
2018-09-08T00:49:43.710Z,0
2018-09-08T00:50:53.144Z,0
2018-09-08T00:52:02.841Z,0
2018-09-08T00:53:12.798Z,0
2018-09-08T00:54:22.503Z,0
2018-09-08T00:55:32.220Z,0
2018-09-08T00:56:41.925Z,0
2018-09-08T00:57:51.883Z,0
2018-09-08T00:59:01.605Z,0
2018-09-08T01:00:11.315Z,0
2018-09-08T01:01:21.277Z,0
2018-09-08T01:02:31.251Z,0
2018-09-08T01:03:41.352Z,0
2018-09-08T01:04:51.390Z,0
2018-09-08T01:06:01.589Z,0
2018-09-08T01:07:11.553Z,0
2018-09-08T01:08:21.254Z,0
2018-09-08T01:09:31.230Z,0
2018-09-08T01:10:40.927Z,0
2018-09-08T01:11:50.912Z,0
2018-09-08T01:13:00.867Z,0
2018-09-08T01:14:10.836Z,0
2018-09-08T01:15:20.545Z,0
2018-09-08T01:16:30.511Z,0
2018-09-08T01:17:40.205Z,0
2018-09-08T01:18:50.173Z,0
2018-09-08T01:20:00.137Z,0
2018-09-08T01:21:09.843Z,0
2018-09-08T01:22:19.550Z,0
2018-09-08T01:23:29.510Z,0
2018-09-08T01:24:39.219Z,0
2018-09-08T01:25:49.184Z,0
2018-09-08T01:26:59.150Z,0
2018-09-08T01:28:08.896Z,0
2018-09-08T01:29:18.539Z,0
2018-09-08T01:30:28.497Z,0
2018-09-08T01:31:38.455Z,0
2018-09-08T01:32:48.439Z,0
2018-09-08T01:33:58.138Z,0
2018-09-08T01:35:07.900Z,0
2018-09-08T01:36:17.853Z,0
2018-09-08T01:37:27.822Z,0
2018-09-08T01:38:37.511Z,0
2018-09-08T01:39:47.216Z,0
2018-09-08T01:40:57.215Z,0
2018-09-08T01:42:06.925Z,0
2018-09-08T01:43:16.624Z,0
2018-09-08T01:44:26.322Z,0
2018-09-08T01:45:36.023Z,0
2018-09-08T01:46:45.979Z,0
2018-09-08T01:47:55.690Z,0
2018-09-08T01:49:05.413Z,0
2018-09-08T01:50:14.859Z,0
2018-09-08T01:51:24.806Z,0
2018-09-08T01:52:34.571Z,0
2018-09-08T01:53:44.537Z,0
2018-09-08T01:54:53.985Z,0
2018-09-08T01:56:03.681Z,0
2018-09-08T01:57:13.128Z,0
2018-09-08T01:58:22.831Z,0
2018-09-08T01:59:32.549Z,0
2018-09-08T02:00:42.502Z,0
2018-09-08T02:01:52.467Z,0
2018-09-08T02:03:02.444Z,0
2018-09-08T02:04:12.399Z,0
2018-09-08T02:05:22.374Z,0
2018-09-08T02:06:32.095Z,0
2018-09-08T02:07:41.799Z,0
2018-09-08T02:08:51.491Z,0
2018-09-08T02:10:00.932Z,0
2018-09-08T02:11:10.633Z,0
2018-09-08T02:12:20.598Z,0
2018-09-08T02:13:30.313Z,0
2018-09-08T02:14:40.282Z,0
2018-09-08T02:15:50.232Z,0
2018-09-08T02:17:00.177Z,0
2018-09-08T02:18:09.631Z,0
2018-09-08T02:19:19.583Z,0
2018-09-08T02:20:29.534Z,0
2018-09-08T02:21:39.494Z,0
2018-09-08T02:22:49.467Z,0
2018-09-08T02:23:59.428Z,0
2018-09-08T02:25:09.120Z,0
2018-09-08T02:26:18.833Z,0
2018-09-08T02:27:28.802Z,0
2018-09-08T02:28:38.509Z,0
2018-09-08T02:29:48.213Z,0
2018-09-08T02:30:58.193Z,0
2018-09-08T02:32:07.635Z,0
2018-09-08T02:33:17.341Z,0
2018-09-08T02:34:27.311Z,0
2018-09-08T02:35:37.281Z,0
2018-09-08T02:36:47.245Z,0
2018-09-08T02:37:56.948Z,0
2018-09-08T02:39:06.912Z,0
2018-09-08T02:40:16.617Z,0
2018-09-08T02:41:26.564Z,0
2018-09-08T02:42:36.539Z,0
2018-09-08T02:43:46.508Z,0
2018-09-08T02:44:56.485Z,0
2018-09-08T02:46:06.450Z,0
2018-09-08T02:47:16.408Z,0
2018-09-08T02:48:26.363Z,0
2018-09-08T02:49:36.325Z,0
2018-09-08T02:50:46.020Z,0
2018-09-08T02:51:55.981Z,0
2018-09-08T02:53:05.421Z,0
2018-09-08T02:54:15.376Z,0
2018-09-08T02:55:25.078Z,0
2018-09-08T02:56:35.054Z,0
2018-09-08T02:57:45.013Z,0
2018-09-08T02:58:54.984Z,0
2018-09-08T03:00:04.695Z,0
2018-09-08T03:01:14.390Z,0
2018-09-08T03:02:24.097Z,0
2018-09-08T03:03:34.044Z,0
2018-09-08T03:04:43.746Z,0
2018-09-08T03:05:53.451Z,0
2018-09-08T03:07:03.410Z,0
2018-09-08T03:08:13.381Z,0
2018-09-08T03:09:22.820Z,0
2018-09-08T03:10:32.782Z,0
2018-09-08T03:11:42.485Z,0
2018-09-08T03:12:52.437Z,0
2018-09-08T03:14:02.434Z,0
2018-09-08T03:15:12.140Z,0
2018-09-08T03:16:22.113Z,0
2018-09-08T03:17:32.062Z,0
2018-09-08T03:18:42.042Z,0
2018-09-08T03:19:51.996Z,0
2018-09-08T03:21:01.684Z,0
2018-09-08T03:22:11.381Z,0
2018-09-08T03:23:21.339Z,0
2018-09-08T03:24:31.303Z,0
2018-09-08T03:25:41.268Z,0
2018-09-08T03:26:50.960Z,0
2018-09-08T03:28:00.649Z,0
2018-09-08T03:29:10.601Z,0
2018-09-08T03:30:20.318Z,0
2018-09-08T03:31:30.275Z,0
2018-09-08T03:32:39.976Z,0
2018-09-08T03:33:49.983Z,0
2018-09-08T03:34:59.989Z,0
2018-09-08T03:36:09.430Z,0
2018-09-08T03:37:19.388Z,0
2018-09-08T03:38:29.079Z,0
2018-09-08T03:39:39.036Z,0
2018-09-08T03:40:48.482Z,0
2018-09-08T03:41:57.915Z,0
2018-09-08T03:43:07.887Z,0
2018-09-08T03:44:17.849Z,0
2018-09-08T03:45:27.808Z,0
2018-09-08T03:46:37.262Z,0
2018-09-08T03:47:46.973Z,0
2018-09-08T03:48:56.677Z,0
2018-09-08T03:50:06.368Z,0
2018-09-08T03:51:16.070Z,0
2018-09-08T03:52:26.018Z,0
2018-09-08T03:53:36.027Z,0
2018-09-08T03:54:45.977Z,0
2018-09-08T03:55:55.431Z,0
2018-09-08T03:57:05.385Z,0
2018-09-08T03:58:15.088Z,0
2018-09-08T03:59:24.782Z,0
2018-09-08T04:00:34.758Z,0
2018-09-08T04:01:44.688Z,0
2018-09-08T04:02:54.395Z,0
2018-09-08T04:04:04.349Z,0
2018-09-08T04:05:14.318Z,0
2018-09-08T04:06:23.763Z,0
2018-09-08T04:07:33.723Z,0
2018-09-08T04:08:43.669Z,0
2018-09-08T04:09:53.428Z,0
2018-09-08T04:11:03.391Z,0
2018-09-08T04:12:13.373Z,0
2018-09-08T04:13:22.824Z,0
2018-09-08T04:14:32.525Z,0
2018-09-08T04:15:42.237Z,0
2018-09-08T04:16:51.691Z,0
2018-09-08T04:18:01.697Z,0
2018-09-08T04:19:11.400Z,0
2018-09-08T04:20:21.363Z,5
2018-09-08T04:21:31.327Z,5
2018-09-08T04:22:41.026Z,5
2018-09-08T04:23:50.997Z,5
2018-09-08T04:25:00.959Z,5
2018-09-08T04:26:10.664Z,5
2018-09-08T04:27:20.620Z,10
2018-09-08T04:28:30.590Z,10
2018-09-08T04:29:40.975Z,10
2018-09-08T04:30:50.944Z,15
2018-09-08T04:32:00.640Z,15
2018-09-08T04:33:10.094Z,15
2018-09-08T04:34:20.071Z,20
2018-09-08T04:35:30.063Z,20
2018-09-08T04:36:40.023Z,25
2018-09-08T04:37:49.974Z,25
2018-09-08T04:38:59.943Z,25
2018-09-08T04:40:09.909Z,30
2018-09-08T04:41:19.612Z,30
2018-09-08T04:42:29.309Z,35
2018-09-08T04:43:39.268Z,35
2018-09-08T04:44:49.221Z,40
2018-09-08T04:45:59.190Z,40
2018-09-08T04:47:09.167Z,45
2018-09-08T04:48:19.133Z,45
2018-09-08T04:49:28.583Z,50
2018-09-08T04:50:38.548Z,50
2018-09-08T04:51:48.529Z,55
2018-09-08T04:52:58.491Z,55
2018-09-08T04:54:08.460Z,60
2018-09-08T04:55:17.962Z,60
2018-09-08T04:56:27.653Z,65
2018-09-08T04:57:37.620Z,65
2018-09-08T04:58:47.572Z,70
2018-09-08T04:59:57.592Z,70
2018-09-08T05:01:07.562Z,75
2018-09-08T05:02:17.545Z,75
2018-09-08T05:03:27.251Z,80
2018-09-08T05:04:37.231Z,80
2018-09-08T05:05:47.201Z,85
2018-09-08T05:06:57.166Z,85
2018-09-08T05:08:06.881Z,90
2018-09-08T05:09:16.870Z,95
2018-09-08T05:10:26.830Z,95
2018-09-08T05:11:36.537Z,100
2018-09-08T05:12:46.513Z,105
2018-09-08T05:13:56.487Z,110
2018-09-08T05:15:06.460Z,110
2018-09-08T05:16:16.420Z,110
2018-09-08T05:17:26.776Z,115
2018-09-08T05:18:36.735Z,115
2018-09-08T05:19:46.707Z,120
2018-09-08T05:20:56.150Z,120
2018-09-08T05:22:06.118Z,120
2018-09-08T05:23:15.815Z,130
2018-09-08T05:24:25.781Z,135
2018-09-08T05:25:35.486Z,140
2018-09-08T05:26:45.451Z,140
2018-09-08T05:27:55.420Z,140
2018-09-08T05:29:05.393Z,140
2018-09-08T05:30:15.357Z,145
2018-09-08T05:31:25.064Z,145
2018-09-08T05:32:34.762Z,145
2018-09-08T05:33:44.723Z,150
2018-09-08T05:34:54.773Z,150
2018-09-08T05:36:04.744Z,155
2018-09-08T05:37:14.717Z,160
2018-09-08T05:38:24.425Z,160
2018-09-08T05:39:34.402Z,160
2018-09-08T05:40:44.121Z,160
2018-09-08T05:41:53.877Z,160
2018-09-08T05:43:03.826Z,160
2018-09-08T05:44:13.862Z,160
2018-09-08T05:45:23.837Z,160
2018-09-08T05:46:33.582Z,165
2018-09-08T05:47:43.040Z,165
2018-09-08T05:48:53.442Z,170
2018-09-08T05:50:03.473Z,170
2018-09-08T05:51:13.215Z,175
2018-09-08T05:52:23.218Z,175
2018-09-08T05:53:33.263Z,180
2018-09-08T05:54:42.977Z,180
2018-09-08T05:55:52.675Z,180
2018-09-08T05:57:02.646Z,185
2018-09-08T05:58:12.360Z,185
2018-09-08T05:59:22.051Z,190
2018-09-08T06:00:31.997Z,190
2018-09-08T06:01:41.177Z,195
2018-09-08T06:02:50.883Z,195
2018-09-08T06:04:00.874Z,200
2018-09-08T06:05:10.615Z,200
2018-09-08T06:06:20.381Z,205
2018-09-08T06:07:29.836Z,205
2018-09-08T06:08:39.527Z,205
2018-09-08T06:09:49.242Z,210
2018-09-08T06:10:58.945Z,210
2018-09-08T06:12:08.912Z,215
2018-09-08T06:13:18.895Z,215
2018-09-08T06:14:28.904Z,215
2018-09-08T06:15:38.610Z,220
2018-09-08T06:16:48.622Z,220
2018-09-08T06:17:58.588Z,220
2018-09-08T06:19:08.551Z,220
2018-09-08T06:20:18.538Z,225
2018-09-08T06:21:28.503Z,225
2018-09-08T06:22:38.513Z,225
2018-09-08T06:23:48.474Z,230
2018-09-08T06:24:58.427Z,235
2018-09-08T06:26:08.133Z,240
2018-09-08T06:27:18.097Z,235
2018-09-08T06:28:28.457Z,235
2018-09-08T06:29:38.494Z,235
2018-09-08T06:30:48.464Z,235
2018-09-08T06:31:58.560Z,240
2018-09-08T06:33:08.542Z,240
2018-09-08T06:34:18.498Z,240
2018-09-08T06:35:29.110Z,240
2018-09-08T06:36:39.101Z,245
2018-09-08T06:37:49.086Z,245
2018-09-08T06:38:59.079Z,245
2018-09-08T06:40:08.774Z,245
2018-09-08T06:41:18.732Z,250
2018-09-08T06:42:28.755Z,250
2018-09-08T06:43:38.720Z,250
2018-09-08T06:44:48.999Z,255
2018-09-08T06:45:58.639Z,255
2018-09-08T06:47:08.356Z,260
2018-09-08T06:48:18.330Z,260
2018-09-08T06:49:28.308Z,265
2018-09-08T06:50:38.007Z,265
2018-09-08T06:51:47.709Z,270
2018-09-08T06:52:57.414Z,270
2018-09-08T06:54:07.375Z,270
2018-09-08T06:55:17.090Z,275
2018-09-08T06:56:27.046Z,275
2018-09-08T06:57:37.009Z,275
2018-09-08T06:58:46.971Z,280
2018-09-08T06:59:56.928Z,280
2018-09-08T07:01:06.906Z,280
2018-09-08T07:02:16.918Z,280
2018-09-08T07:03:27.291Z,285
2018-09-08T07:04:37.330Z,285
2018-09-08T07:05:47.303Z,285
2018-09-08T07:06:57.279Z,285
2018-09-08T07:08:06.985Z,285
2018-09-08T07:09:16.958Z,285
2018-09-08T07:10:26.924Z,285
2018-09-08T07:11:36.619Z,285
2018-09-08T07:12:46.587Z,290
2018-09-08T07:13:56.560Z,295
2018-09-08T07:15:06.688Z,290
2018-09-08T07:16:16.464Z,290
2018-09-08T07:17:26.427Z,290
2018-09-08T07:18:36.408Z,290
2018-09-08T07:19:46.388Z,290
2018-09-08T07:20:56.090Z,295
2018-09-08T07:22:06.070Z,295
2018-09-08T07:23:16.043Z,295
2018-09-08T07:24:26.012Z,295
2018-09-08T07:25:35.734Z,295
2018-09-08T07:26:45.731Z,295
2018-09-08T07:27:55.693Z,295
2018-09-08T07:29:05.656Z,295
2018-09-08T07:30:15.116Z,295
2018-09-08T07:31:24.557Z,295
2018-09-08T07:32:34.570Z,295
2018-09-08T07:33:44.543Z,295
2018-09-08T07:34:54.505Z,295
2018-09-08T07:36:04.457Z,295
2018-09-08T07:37:14.491Z,295
2018-09-08T07:38:24.472Z,295
2018-09-08T07:39:34.428Z,295
2018-09-08T07:40:44.425Z,305
2018-09-08T07:41:54.136Z,300
2018-09-08T07:43:04.121Z,300
2018-09-08T07:44:13.816Z,300
2018-09-08T07:45:23.539Z,300
2018-09-08T07:46:33.499Z,305
2018-09-08T07:47:43.208Z,305
2018-09-08T07:48:52.652Z,305
2018-09-08T07:50:02.632Z,305
2018-09-08T07:51:12.621Z,310
2018-09-08T07:52:22.601Z,310
2018-09-08T07:53:33.295Z,310
2018-09-08T07:54:43.339Z,315
2018-09-08T07:55:53.326Z,315
2018-09-08T07:57:03.312Z,315
2018-09-08T07:58:13.026Z,315
2018-09-08T07:59:22.909Z,315
2018-09-08T08:00:32.929Z,315
2018-09-08T08:01:42.641Z,315
2018-09-08T08:02:52.367Z,320
2018-09-08T08:04:02.327Z,320
2018-09-08T08:05:12.044Z,320
2018-09-08T08:06:22.018Z,325
2018-09-08T08:07:31.985Z,325
2018-09-08T08:08:41.996Z,330
2018-09-08T08:09:51.967Z,330
2018-09-08T08:11:01.932Z,330
2018-09-08T08:12:11.910Z,330
2018-09-08T08:13:21.875Z,385
2018-09-08T08:14:32.082Z,625
2018-09-08T08:15:41.875Z,710
2018-09-08T08:16:51.582Z,780
2018-09-08T08:18:01.298Z,785
2018-09-08T08:19:11.045Z,810
2018-09-08T08:20:20.995Z,820
2018-09-08T08:21:30.960Z,830
2018-09-08T08:22:40.927Z,835
2018-09-08T08:23:50.911Z,820
2018-09-08T08:25:00.628Z,885
2018-09-08T08:26:10.624Z,885
2018-09-08T08:27:20.593Z,880
2018-09-08T08:28:30.054Z,915
2018-09-08T08:29:39.261Z,950
2018-09-08T08:30:49.238Z,915
2018-09-08T08:31:59.213Z,925
2018-09-08T08:33:09.183Z,960
2018-09-08T08:34:19.175Z,965
2018-09-08T08:35:29.145Z,1020
2018-09-08T08:36:39.111Z,975
2018-09-08T08:37:49.081Z,995
2018-09-08T08:38:58.810Z,1075
2018-09-08T08:40:08.523Z,1050
2018-09-08T08:41:18.481Z,1090
2018-09-08T08:42:28.224Z,1120
2018-09-08T08:43:38.193Z,1090
2018-09-08T08:44:48.185Z,1120
2018-09-08T08:45:58.154Z,1105
2018-09-08T08:47:07.868Z,1100
2018-09-08T08:48:17.839Z,1115
2018-09-08T08:49:27.841Z,1135
2018-09-08T08:50:37.811Z,1155
2018-09-08T08:51:47.522Z,1220
2018-09-08T08:52:57.501Z,1270
2018-09-08T08:54:07.475Z,1220
2018-09-08T08:55:17.432Z,1235
2018-09-08T08:56:27.132Z,1270
2018-09-08T08:57:36.841Z,1285
2018-09-08T08:58:46.836Z,1300
2018-09-08T08:59:56.800Z,1250
2018-09-08T09:01:06.768Z,1225
2018-09-08T09:02:16.750Z,1285
2018-09-08T09:03:26.467Z,1410
2018-09-08T09:04:36.177Z,1320
2018-09-08T09:05:46.151Z,1330
2018-09-08T09:06:57.022Z,1270
2018-09-08T09:08:07.264Z,1345
2018-09-08T09:09:17.237Z,1420
2018-09-08T09:10:27.216Z,1355
2018-09-08T09:11:38.346Z,1375
2018-09-08T09:12:48.786Z,1355
2018-09-08T09:13:58.788Z,1470
2018-09-08T09:15:09.290Z,1500
2018-09-08T09:16:19.416Z,1475
2018-09-08T09:17:29.381Z,1480
2018-09-08T09:18:41.568Z,1460
2018-09-08T09:19:51.489Z,1690
2018-09-08T09:21:01.516Z,1510
2018-09-08T09:22:11.492Z,1385
2018-09-08T09:23:23.548Z,1820
2018-09-08T09:24:35.148Z,1740
2018-09-08T09:25:45.270Z,1570
2018-09-08T09:26:54.985Z,1620
2018-09-08T09:28:04.975Z,1630
2018-09-08T09:29:14.958Z,1585
2018-09-08T09:30:24.942Z,1800
2018-09-08T09:31:34.919Z,1670
2018-09-08T09:32:44.916Z,1640
2018-09-08T09:33:54.903Z,425
2018-09-08T09:35:04.622Z,1765
2018-09-08T09:36:14.348Z,1725
2018-09-08T09:37:24.369Z,1745
2018-09-08T09:38:34.342Z,1685
2018-09-08T09:39:44.310Z,1790
2018-09-08T09:40:54.301Z,1815
2018-09-08T09:42:04.015Z,1840
2018-09-08T09:43:13.994Z,1740
2018-09-08T09:44:24.114Z,1835
2018-09-08T09:45:33.898Z,1850
2018-09-08T09:46:43.883Z,1725
2018-09-08T09:47:53.875Z,1880
2018-09-08T09:49:03.856Z,1890
2018-09-08T09:50:13.571Z,1890
2018-09-08T09:51:23.275Z,1860
2018-09-08T09:52:33.226Z,1905
2018-09-08T09:53:43.186Z,1780
2018-09-08T09:54:53.156Z,1790
2018-09-08T09:56:02.871Z,1990
2018-09-08T09:57:12.838Z,535
2018-09-08T09:58:22.815Z,1885
2018-09-08T09:59:32.796Z,1925
2018-09-08T10:00:42.772Z,1855
2018-09-08T10:01:52.754Z,2030
2018-09-08T10:03:02.717Z,2010
2018-09-08T10:04:12.686Z,2030
2018-09-08T10:05:22.706Z,2090
2018-09-08T10:06:33.033Z,1955
2018-09-08T10:07:43.075Z,2070
2018-09-08T10:08:52.531Z,2230
2018-09-08T10:10:02.258Z,2215
2018-09-08T10:11:11.993Z,2120
2018-09-08T10:12:22.142Z,1995
2018-09-08T10:13:31.851Z,1975
2018-09-08T10:14:41.819Z,2095
2018-09-08T10:15:51.290Z,2100
2018-09-08T10:17:01.271Z,2160
2018-09-08T10:18:11.247Z,2120
2018-09-08T10:19:21.231Z,2235
2018-09-08T10:20:31.220Z,2275
2018-09-08T10:21:40.678Z,2205
2018-09-08T10:22:50.639Z,2300
2018-09-08T10:24:14.375Z,2285
2018-09-08T10:25:24.097Z,2285
2018-09-08T10:26:34.206Z,2370
2018-09-08T10:27:44.180Z,2275
2018-09-08T10:28:53.915Z,2175
2018-09-08T10:30:05.727Z,2360
2018-09-08T10:31:15.713Z,2370
2018-09-08T10:32:26.006Z,2275
2018-09-08T10:33:35.724Z,2180
2018-09-08T10:34:45.749Z,2395
2018-09-08T10:35:55.514Z,2415
2018-09-08T10:37:05.480Z,2370
2018-09-08T10:38:15.197Z,2400
2018-09-08T10:39:24.923Z,2470
2018-09-08T10:40:35.242Z,2445
2018-09-08T10:41:45.216Z,2510
2018-09-08T10:42:54.953Z,2555
2018-09-08T10:44:04.926Z,2510
2018-09-08T10:45:14.903Z,2650
2018-09-08T10:46:24.875Z,2605
2018-09-08T10:47:34.603Z,2480
2018-09-08T10:48:44.322Z,2555
2018-09-08T10:49:54.300Z,2655
2018-09-08T10:51:04.737Z,2560
2018-09-08T10:52:14.844Z,2460
2018-09-08T10:53:24.553Z,2750
2018-09-08T10:54:34.528Z,930
2018-09-08T10:55:44.523Z,2740
2018-09-08T10:56:54.237Z,1455
2018-09-08T10:58:03.714Z,2750
2018-09-08T10:59:13.695Z,2765
2018-09-08T11:00:23.408Z,2785
2018-09-08T11:01:34.166Z,2715
2018-09-08T11:02:46.168Z,820
2018-09-08T11:03:56.276Z,1105
2018-09-08T11:05:06.279Z,2980
2018-09-08T11:06:16.247Z,2890
2018-09-08T11:07:26.244Z,2860
2018-09-08T11:08:36.220Z,2890
2018-09-08T11:09:46.195Z,2745
2018-09-08T11:10:55.926Z,2775
2018-09-08T11:12:05.913Z,2860
2018-09-08T11:13:15.640Z,2790
2018-09-08T11:14:25.626Z,2705
2018-09-08T11:15:35.783Z,2825
2018-09-08T11:16:45.504Z,3035
2018-09-08T11:17:55.232Z,840
2018-09-08T11:19:05.065Z,875
2018-09-08T11:20:14.805Z,840
2018-09-08T11:21:24.800Z,985
2018-09-08T11:22:34.546Z,805
2018-09-08T11:23:44.529Z,1145
2018-09-08T11:24:54.500Z,2875
2018-09-08T11:26:04.477Z,2965
2018-09-08T11:27:14.447Z,2975
2018-09-08T11:28:24.410Z,2940
2018-09-08T11:29:34.439Z,3040
2018-09-08T11:30:45.023Z,3020
2018-09-08T11:31:55.034Z,2935
2018-09-08T11:33:05.022Z,2970
2018-09-08T11:34:15.017Z,730
2018-09-08T11:35:24.742Z,710
2018-09-08T11:36:34.719Z,800
2018-09-08T11:37:44.706Z,2800
2018-09-08T11:38:54.438Z,3045
2018-09-08T11:40:04.417Z,3140
2018-09-08T11:41:14.126Z,2650
2018-09-08T11:42:23.833Z,720
2018-09-08T11:43:33.538Z,725
2018-09-08T11:44:43.331Z,2935
2018-09-08T11:45:53.037Z,2975
2018-09-08T11:47:03.031Z,2860
2018-09-08T11:48:12.760Z,715
2018-09-08T11:49:22.795Z,670
2018-09-08T11:50:32.539Z,690
2018-09-08T11:51:42.254Z,735
2018-09-08T11:52:51.825Z,965
2018-09-08T11:54:01.815Z,3045
2018-09-08T11:55:11.783Z,735
2018-09-08T11:56:21.775Z,675
2018-09-08T11:57:31.484Z,700
2018-09-08T11:58:41.466Z,740
2018-09-08T11:59:51.688Z,1345
2018-09-08T12:01:01.405Z,755
2018-09-08T12:02:11.763Z,705
2018-09-08T12:03:22.015Z,3060
2018-09-08T12:04:31.746Z,3225
2018-09-08T12:05:41.733Z,3170
2018-09-08T12:06:51.456Z,670
2018-09-08T12:08:01.359Z,670
2018-09-08T12:09:11.341Z,705
2018-09-08T12:10:21.054Z,745
2018-09-08T12:11:31.026Z,775
2018-09-08T12:12:40.996Z,725
2018-09-08T12:13:50.793Z,700
2018-09-08T12:15:00.779Z,680
2018-09-08T12:16:10.497Z,730
2018-09-08T12:17:20.488Z,810
2018-09-08T12:18:30.454Z,835
2018-09-08T12:19:40.417Z,3015
2018-09-08T12:20:50.399Z,760
2018-09-08T12:22:00.402Z,750
2018-09-08T12:23:10.373Z,830
2018-09-08T12:24:20.354Z,760
2018-09-08T12:25:30.342Z,750
2018-09-08T12:26:40.326Z,760
2018-09-08T12:27:50.305Z,820
2018-09-08T12:29:00.302Z,3245
2018-09-08T12:30:10.281Z,1955
2018-09-08T12:31:20.270Z,2845
2018-09-08T12:32:30.183Z,3355
2018-09-08T12:33:40.195Z,3480
2018-09-08T12:34:49.931Z,875
2018-09-08T12:35:59.899Z,795
2018-09-08T12:37:10.098Z,810
2018-09-08T12:38:20.134Z,935
2018-09-08T12:39:30.122Z,3315
2018-09-08T12:40:40.093Z,970
2018-09-08T12:41:50.088Z,895
2018-09-08T12:43:00.069Z,1080
2018-09-08T12:44:10.054Z,920
2018-09-08T12:45:20.032Z,920
2018-09-08T12:46:29.754Z,1600
2018-09-08T12:47:39.747Z,3295
2018-09-08T12:48:49.724Z,3325
2018-09-08T12:49:59.738Z,3390
2018-09-08T12:51:09.741Z,3455
2018-09-08T12:52:19.459Z,1410
2018-09-08T12:53:29.620Z,865
2018-09-08T12:54:39.365Z,1325
2018-09-08T12:55:49.132Z,1030
2018-09-08T12:56:59.106Z,3310
2018-09-08T12:58:09.081Z,1030
2018-09-08T12:59:19.581Z,3490
2018-09-08T13:00:29.558Z,3545
2018-09-08T13:01:39.523Z,3535
2018-09-08T13:02:49.253Z,3430
2018-09-08T13:03:59.243Z,2285
2018-09-08T13:05:08.428Z,1030
2018-09-08T13:06:18.392Z,3485
2018-09-08T13:07:28.374Z,3455
2018-09-08T13:08:38.347Z,3300
2018-09-08T13:09:48.059Z,3250
2018-09-08T13:10:57.510Z,3335
2018-09-08T13:12:07.481Z,3410
2018-09-08T13:13:17.476Z,3360
2018-09-08T13:14:27.873Z,3350
2018-09-08T13:15:37.318Z,3305
2018-09-08T13:16:46.778Z,3210
2018-09-08T13:17:56.809Z,3115
2018-09-08T13:19:06.271Z,3255
2018-09-08T13:20:16.233Z,3380
2018-09-08T13:21:26.214Z,3345
2018-09-08T13:22:36.186Z,2805
2018-09-08T13:23:46.173Z,3225
2018-09-08T13:24:56.202Z,2615
2018-09-08T13:26:06.208Z,2105
2018-09-08T13:27:16.189Z,2260
2018-09-08T13:28:26.188Z,1530
2018-09-08T13:29:35.684Z,3245
2018-09-08T13:30:45.695Z,3015
2018-09-08T13:31:55.667Z,3180
2018-09-08T13:33:05.639Z,1915
2018-09-08T13:34:15.631Z,2550
2018-09-08T13:35:25.362Z,3365
2018-09-08T13:36:35.104Z,3365
2018-09-08T13:37:45.082Z,3255
2018-09-08T13:38:54.533Z,3270
2018-09-08T13:40:04.634Z,3315
2018-09-08T13:41:14.608Z,3065
2018-09-08T13:42:24.591Z,3130
2018-09-08T13:43:34.314Z,3345
2018-09-08T13:44:44.036Z,3300
2018-09-08T13:45:54.022Z,3335
2018-09-08T13:47:04.496Z,3280
2018-09-08T13:48:14.309Z,3335
2018-09-08T13:49:24.293Z,3395
2018-09-08T13:50:34.302Z,3300
2018-09-08T13:51:44.269Z,3310
2018-09-08T13:52:54.701Z,3285
2018-09-08T13:54:04.501Z,3285
2018-09-08T13:55:14.505Z,3225
2018-09-08T13:56:24.493Z,3210
2018-09-08T13:57:34.228Z,3300
2018-09-08T13:58:44.232Z,3270
2018-09-08T13:59:53.978Z,3045
2018-09-08T14:01:03.979Z,2840
2018-09-08T14:02:13.967Z,2830
2018-09-08T14:03:23.949Z,2945
2018-09-08T14:04:33.696Z,2980
2018-09-08T14:05:43.429Z,2985
2018-09-08T14:06:53.407Z,2600
2018-09-08T14:08:03.389Z,2200
2018-09-08T14:09:13.425Z,2520
2018-09-08T14:10:23.153Z,2765
2018-09-08T14:11:32.875Z,2920
2018-09-08T14:12:42.856Z,2915
2018-09-08T14:13:52.573Z,1825
2018-09-08T14:15:02.285Z,2925
2018-09-08T14:16:11.743Z,3030
2018-09-08T14:17:21.734Z,2275
2018-09-08T14:18:31.711Z,1785
2018-09-08T14:19:41.683Z,2670
2018-09-08T14:20:51.693Z,2725
2018-09-08T14:22:01.668Z,2685
2018-09-08T14:23:11.652Z,2310
2018-09-08T14:24:21.389Z,2145
2018-09-08T14:25:31.388Z,2430
2018-09-08T14:26:41.352Z,810
2018-09-08T14:27:51.097Z,775
2018-09-08T14:29:01.087Z,895
2018-09-08T14:30:10.805Z,1135
2018-09-08T14:31:20.786Z,1525
2018-09-08T14:32:30.775Z,2545
2018-09-08T14:33:40.764Z,2790
2018-09-08T14:34:50.740Z,1195
2018-09-08T14:36:00.738Z,895
2018-09-08T14:37:10.712Z,2325
2018-09-08T14:38:20.693Z,1875
2018-09-08T14:39:30.412Z,1145
2018-09-08T14:40:40.126Z,835
2018-09-08T14:41:50.100Z,1780
2018-09-08T14:43:00.104Z,1960
2018-09-08T14:44:10.072Z,2480
2018-09-08T14:45:20.118Z,2155
2018-09-08T14:46:30.121Z,2185
2018-09-08T14:47:40.870Z,1975
2018-09-08T14:48:50.408Z,2260
2018-09-08T14:50:00.378Z,2400
2018-09-08T14:51:10.348Z,2735
2018-09-08T14:52:20.331Z,2825
2018-09-08T14:53:30.059Z,2780
2018-09-08T14:54:40.052Z,2660
2018-09-08T14:55:49.763Z,2510
2018-09-08T14:57:00.040Z,2465
2018-09-08T14:58:09.556Z,2440
2018-09-08T14:59:19.264Z,2475
2018-09-08T15:00:29.244Z,2590
2018-09-08T15:01:38.987Z,2535
2018-09-08T15:02:48.957Z,2280
2018-09-08T15:03:58.939Z,2460
2018-09-08T15:05:09.544Z,2290
2018-09-08T15:06:19.619Z,2175
2018-09-08T15:07:29.348Z,1875
2018-09-08T15:08:39.331Z,1470
2018-09-08T15:09:49.316Z,1685
2018-09-08T15:10:58.770Z,1890
2018-09-08T15:12:08.515Z,2000
2018-09-08T15:13:18.513Z,2060
2018-09-08T15:14:28.478Z,2170
2018-09-08T15:15:38.462Z,2150
2018-09-08T15:16:47.930Z,2095
2018-09-08T15:17:57.666Z,1895
2018-09-08T15:19:07.124Z,1505
2018-09-08T15:20:16.848Z,1340
2018-09-08T15:21:26.833Z,1545
2018-09-08T15:22:36.276Z,1475
2018-09-08T15:23:46.248Z,1435
2018-09-08T15:24:55.971Z,935
2018-09-08T15:26:05.959Z,615
2018-09-08T15:27:15.962Z,600
2018-09-08T15:28:25.932Z,535
2018-09-08T15:29:35.924Z,460
2018-09-08T15:30:45.893Z,395
2018-09-08T15:31:55.874Z,375
2018-09-08T15:33:05.959Z,365
2018-09-08T15:34:15.679Z,365
2018-09-08T15:35:25.708Z,350
2018-09-08T15:36:35.444Z,340
2018-09-08T15:37:45.172Z,345
2018-09-08T15:38:55.148Z,355
2018-09-08T15:40:04.861Z,360
2018-09-08T15:41:14.831Z,375
2018-09-08T15:42:24.813Z,390
2018-09-08T15:43:35.031Z,420
2018-09-08T15:44:45.038Z,450
2018-09-08T15:45:55.260Z,475
2018-09-08T15:47:04.743Z,500
2018-09-08T15:48:14.467Z,560
2018-09-08T15:49:24.446Z,810
2018-09-08T15:50:34.205Z,1165
2018-09-08T15:51:44.471Z,1640
2018-09-08T15:52:54.440Z,1435
2018-09-08T15:54:04.406Z,880
2018-09-08T15:55:14.392Z,775
2018-09-08T15:56:24.369Z,835
2018-09-08T15:57:34.340Z,740
2018-09-08T15:58:44.764Z,580
2018-09-08T15:59:54.818Z,495
2018-09-08T16:01:04.530Z,440
2018-09-08T16:02:14.525Z,420
2018-09-08T16:03:24.252Z,410
2018-09-08T16:04:34.723Z,405
2018-09-08T16:05:44.177Z,480
2018-09-08T16:06:53.906Z,560
2018-09-08T16:08:03.620Z,575
2018-09-08T16:09:13.602Z,625
2018-09-08T16:10:23.579Z,700